sensor_id;sensor_type;location;lat;lon;timestamp;pressure;altitude;pressure_sealevel;temperature;humidity
69245;BME280;56357;52.304;4.870;2023-05-10T00:01:58;101040.69;;;19.50;59.45
69245;BME280;56357;52.304;4.870;2023-05-10T00:04:24;101036.78;;;19.41;59.55
69245;BME280;56357;52.304;4.870;2023-05-10T00:06:52;101035.66;;;19.42;59.71
69245;BME280;56357;52.304;4.870;2023-05-10T00:09:19;101040.13;;;19.43;59.36
69245;BME280;56357;52.304;4.870;2023-05-10T00:11:45;101039.88;;;19.39;59.68
69245;BME280;56357;52.304;4.870;2023-05-10T00:14:12;101036.22;;;19.44;59.33
69245;BME280;56357;52.304;4.870;2023-05-10T00:16:38;101043.28;;;19.36;59.72
69245;BME280;56357;52.304;4.870;2023-05-10T00:19:05;101037.91;;;19.35;59.52
69245;BME280;56357;52.304;4.870;2023-05-10T00:21:31;101037.59;;;19.31;59.70
69245;BME280;56357;52.304;4.870;2023-05-10T00:23:59;101044.97;;;19.32;59.79
69245;BME280;56357;52.304;4.870;2023-05-10T00:26:25;101043.28;;;19.36;59.38
69245;BME280;56357;52.304;4.870;2023-05-10T00:28:52;101041.84;;;19.34;59.59
69245;BME280;56357;52.304;4.870;2023-05-10T00:31:18;101037.06;;;19.29;59.78
69245;BME280;56357;52.304;4.870;2023-05-10T00:33:45;101044.06;;;19.32;59.56
69245;BME280;56357;52.304;4.870;2023-05-10T00:36:11;101037.59;;;19.31;59.61
69245;BME280;56357;52.304;4.870;2023-05-10T00:38:38;101042.66;;;19.29;59.48
69245;BME280;56357;52.304;4.870;2023-05-10T00:41:04;101039.34;;;19.32;59.55
69245;BME280;56357;52.304;4.870;2023-05-10T00:43:30;101041.28;;;19.27;59.70
69245;BME280;56357;52.304;4.870;2023-05-10T00:45:57;101038.75;;;19.25;59.38
69245;BME280;56357;52.304;4.870;2023-05-10T00:48:24;101046.06;;;19.26;59.62
69245;BME280;56357;52.304;4.870;2023-05-10T00:50:50;101044.38;;;19.30;59.41
69245;BME280;56357;52.304;4.870;2023-05-10T00:53:17;101048.00;;;19.26;59.52
69245;BME280;56357;52.304;4.870;2023-05-10T00:55:43;101049.44;;;19.28;59.33
69245;BME280;56357;52.304;4.870;2023-05-10T00:58:10;101048.84;;;19.21;59.30
69245;BME280;56357;52.304;4.870;2023-05-10T01:00:37;101047.75;;;19.22;59.62
69245;BME280;56357;52.304;4.870;2023-05-10T01:03:04;101054.75;;;19.19;59.49
69245;BME280;56357;52.304;4.870;2023-05-10T01:05:30;101053.91;;;19.24;59.38
69245;BME280;56357;52.304;4.870;2023-05-10T01:07:57;101057.03;;;19.23;59.48
69245;BME280;56357;52.304;4.870;2023-05-10T01:10:23;101060.66;;;19.28;59.46
69245;BME280;56357;52.304;4.870;2023-05-10T01:12:50;101057.59;;;19.25;59.56
69245;BME280;56357;52.304;4.870;2023-05-10T01:15:17;101059.53;;;19.24;59.46
69245;BME280;56357;52.304;4.870;2023-05-10T01:17:45;101057.28;;;19.21;59.60
69245;BME280;56357;52.304;4.870;2023-05-10T01:20:14;101060.66;;;19.23;59.49
69245;BME280;56357;52.304;4.870;2023-05-10T01:25:25;101063.75;;;19.22;59.66
69245;BME280;56357;52.304;4.870;2023-05-10T01:28:02;101060.66;;;19.18;59.56
69245;BME280;56357;52.304;4.870;2023-05-10T01:34:12;101055.88;;;19.13;59.67
69245;BME280;56357;52.304;4.870;2023-05-10T01:38:50;101062.91;;;19.16;59.35
69245;BME280;56357;52.304;4.870;2023-05-10T01:41:23;101058.97;;;19.12;59.84
69245;BME280;56357;52.304;4.870;2023-05-10T01:43:57;101060.97;;;19.16;59.42
69245;BME280;56357;52.304;4.870;2023-05-10T01:46:34;101056.75;;;19.19;59.60
69245;BME280;56357;52.304;4.870;2023-05-10T01:49:03;101065.44;;;19.17;59.53
69245;BME280;56357;52.304;4.870;2023-05-10T01:51:45;101054.19;;;19.17;59.52
69245;BME280;56357;52.304;4.870;2023-05-10T01:54:14;101062.91;;;19.16;59.65
69245;BME280;56357;52.304;4.870;2023-05-10T01:56:44;101058.44;;;19.15;59.50
69245;BME280;56357;52.304;4.870;2023-05-10T01:59:18;101065.44;;;19.17;59.48
69245;BME280;56357;52.304;4.870;2023-05-10T02:01:47;101069.38;;;19.16;59.58
69245;BME280;56357;52.304;4.870;2023-05-10T02:04:16;101068.53;;;19.16;59.19
69245;BME280;56357;52.304;4.870;2023-05-10T02:06:44;101076.94;;;19.16;59.72
69245;BME280;56357;52.304;4.870;2023-05-10T02:09:14;101080.34;;;19.13;59.73
69245;BME280;56357;52.304;4.870;2023-05-10T02:11:42;101079.50;;;19.12;59.67
69245;BME280;56357;52.304;4.870;2023-05-10T02:14:11;101089.56;;;19.13;59.81
69245;BME280;56357;52.304;4.870;2023-05-10T02:16:38;101086.78;;;19.13;59.89
69245;BME280;56357;52.304;4.870;2023-05-10T02:19:07;101091.28;;;19.14;59.88
69245;BME280;56357;52.304;4.870;2023-05-10T02:21:35;101090.97;;;19.21;59.41
69245;BME280;56357;52.304;4.870;2023-05-10T02:24:03;101098.28;;;19.22;59.62
69245;BME280;56357;52.304;4.870;2023-05-10T02:26:31;101097.44;;;19.22;59.93
69245;BME280;56357;52.304;4.870;2023-05-10T02:29:01;101099.13;;;19.23;59.51
69245;BME280;56357;52.304;4.870;2023-05-10T02:31:31;101105.28;;;19.30;59.61
69245;BME280;56357;52.304;4.870;2023-05-10T02:33:59;101108.38;;;19.23;59.50
69245;BME280;56357;52.304;4.870;2023-05-10T02:36:27;101105.56;;;19.23;59.58
69245;BME280;56357;52.304;4.870;2023-05-10T02:38:54;101106.41;;;19.24;59.60
69245;BME280;56357;52.304;4.870;2023-05-10T02:41:22;101105.88;;;19.22;59.53
69245;BME280;56357;52.304;4.870;2023-05-10T02:43:50;101110.63;;;19.21;59.78
69245;BME280;56357;52.304;4.870;2023-05-10T02:46:18;101103.34;;;19.20;59.82
69245;BME280;56357;52.304;4.870;2023-05-10T02:48:45;101108.66;;;19.22;59.50
69245;BME280;56357;52.304;4.870;2023-05-10T02:51:12;101113.75;;;19.25;59.55
69245;BME280;56357;52.304;4.870;2023-05-10T02:53:43;101101.38;;;19.15;59.89
69245;BME280;56357;52.304;4.870;2023-05-10T02:56:14;101107.28;;;19.19;59.81
69245;BME280;56357;52.304;4.870;2023-05-10T02:58:42;101108.41;;;19.33;59.55
69245;BME280;56357;52.304;4.870;2023-05-10T03:01:09;101110.06;;;19.29;59.44
69245;BME280;56357;52.304;4.870;2023-05-10T03:03:35;101111.50;;;19.27;59.66
69245;BME280;56357;52.304;4.870;2023-05-10T03:06:02;101102.22;;;19.26;59.62
69245;BME280;56357;52.304;4.870;2023-05-10T03:08:28;101099.97;;;19.28;59.61
69245;BME280;56357;52.304;4.870;2023-05-10T03:11:11;101103.94;;;19.32;59.53
69245;BME280;56357;52.304;4.870;2023-05-10T03:13:58;101097.19;;;19.33;59.74
69245;BME280;56357;52.304;4.870;2023-05-10T03:16:35;101106.97;;;19.26;59.88
69245;BME280;56357;52.304;4.870;2023-05-10T03:19:16;101098.84;;;19.24;59.65
69245;BME280;56357;52.304;4.870;2023-05-10T03:21:47;101103.63;;;19.24;59.89
69245;BME280;56357;52.304;4.870;2023-05-10T03:24:16;101100.50;;;19.25;59.65
69245;BME280;56357;52.304;4.870;2023-05-10T03:26:44;101112.88;;;19.24;59.82
69245;BME280;56357;52.304;4.870;2023-05-10T03:29:14;101119.06;;;19.26;59.74
69245;BME280;56357;52.304;4.870;2023-05-10T03:31:41;101108.94;;;19.25;59.83
69245;BME280;56357;52.304;4.870;2023-05-10T03:34:08;101109.78;;;19.26;59.75
69245;BME280;56357;52.304;4.870;2023-05-10T03:36:35;101108.09;;;19.30;59.54
69245;BME280;56357;52.304;4.870;2023-05-10T03:39:01;101115.16;;;19.32;59.56
69245;BME280;56357;52.304;4.870;2023-05-10T03:41:28;101108.41;;;19.33;59.65
69245;BME280;56357;52.304;4.870;2023-05-10T03:43:55;101115.97;;;19.33;59.68
69245;BME280;56357;52.304;4.870;2023-05-10T03:46:21;101112.34;;;19.32;59.58
69245;BME280;56357;52.304;4.870;2023-05-10T03:48:48;101117.97;;;19.37;59.51
69245;BME280;56357;52.304;4.870;2023-05-10T03:51:14;101111.22;;;19.38;59.39
69245;BME280;56357;52.304;4.870;2023-05-10T03:53:41;101123.88;;;19.36;59.36
69245;BME280;56357;52.304;4.870;2023-05-10T03:56:07;101120.72;;;19.27;59.21
69245;BME280;56357;52.304;4.870;2023-05-10T03:58:34;101125.25;;;19.33;59.65
69245;BME280;56357;52.304;4.870;2023-05-10T04:01:00;101128.31;;;19.32;59.45
69245;BME280;56357;52.304;4.870;2023-05-10T04:03:27;101121.91;;;19.36;59.17
69245;BME280;56357;52.304;4.870;2023-05-10T04:06:00;101127.75;;;19.30;59.07
69245;BME280;56357;52.304;4.870;2023-05-10T04:08:27;101134.53;;;19.29;59.04
69245;BME280;56357;52.304;4.870;2023-05-10T04:10:53;101131.97;;;19.27;59.11
69245;BME280;56357;52.304;4.870;2023-05-10T04:13:20;101132.56;;;19.19;59.40
69245;BME280;56357;52.304;4.870;2023-05-10T04:15:46;101125.22;;;19.23;59.26
69245;BME280;56357;52.304;4.870;2023-05-10T04:18:12;101138.16;;;19.24;59.02
69245;BME280;56357;52.304;4.870;2023-05-10T04:20:39;101134.78;;;19.22;59.21
69245;BME280;56357;52.304;4.870;2023-05-10T04:23:05;101135.91;;;19.21;59.30
69245;BME280;56357;52.304;4.870;2023-05-10T04:25:34;101130.28;;;19.21;59.12
69245;BME280;56357;52.304;4.870;2023-05-10T04:28:00;101134.53;;;19.18;59.27
69245;BME280;56357;52.304;4.870;2023-05-10T04:30:27;101132.84;;;19.23;59.35
69245;BME280;56357;52.304;4.870;2023-05-10T04:32:54;101140.13;;;19.24;59.11
69245;BME280;56357;52.304;4.870;2023-05-10T04:35:20;101139.84;;;19.25;59.25
69245;BME280;56357;52.304;4.870;2023-05-10T04:37:47;101146.31;;;19.21;59.34
69245;BME280;56357;52.304;4.870;2023-05-10T04:40:13;101146.03;;;19.22;59.16
69245;BME280;56357;52.304;4.870;2023-05-10T04:42:40;101146.31;;;19.21;59.44
69245;BME280;56357;52.304;4.870;2023-05-10T04:45:07;101143.50;;;19.21;59.55
69245;BME280;56357;52.304;4.870;2023-05-10T04:47:34;101141.81;;;19.25;59.38
69245;BME280;56357;52.304;4.870;2023-05-10T04:50:02;101147.44;;;19.25;59.08
69245;BME280;56357;52.304;4.870;2023-05-10T04:52:29;101142.38;;;19.27;59.13
69245;BME280;56357;52.304;4.870;2023-05-10T04:54:55;101141.81;;;19.25;59.15
69245;BME280;56357;52.304;4.870;2023-05-10T04:57:22;101147.44;;;19.25;59.13
69245;BME280;56357;52.304;4.870;2023-05-10T04:59:48;101155.28;;;19.28;59.42
69245;BME280;56357;52.304;4.870;2023-05-10T05:02:15;101150.25;;;19.35;59.19
69245;BME280;56357;52.304;4.870;2023-05-10T05:04:41;101163.72;;;19.33;59.42
69245;BME280;56357;52.304;4.870;2023-05-10T05:07:07;101158.97;;;19.33;59.06
69245;BME280;56357;52.304;4.870;2023-05-10T05:09:34;101161.72;;;19.73;58.62
69245;BME280;56357;52.304;4.870;2023-05-10T05:12:00;101169.34;;;19.43;58.73
69245;BME280;56357;52.304;4.870;2023-05-10T05:14:27;101169.91;;;19.35;58.78
69245;BME280;56357;52.304;4.870;2023-05-10T05:16:53;101171.03;;;19.34;58.74
69245;BME280;56357;52.304;4.870;2023-05-10T05:19:20;101170.19;;;19.28;58.72
69245;BME280;56357;52.304;4.870;2023-05-10T05:21:47;101176.94;;;19.37;58.77
69245;BME280;56357;52.304;4.870;2023-05-10T05:24:14;101181.97;;;19.30;58.94
69245;BME280;56357;52.304;4.870;2023-05-10T05:26:40;101185.38;;;19.32;59.21
69245;BME280;56357;52.304;4.870;2023-05-10T05:29:06;101180.03;;;19.36;58.97
69245;BME280;56357;52.304;4.870;2023-05-10T05:31:33;101194.06;;;19.41;58.92
69245;BME280;56357;52.304;4.870;2023-05-10T05:34:00;101199.13;;;19.44;58.92
69245;BME280;56357;52.304;4.870;2023-05-10T05:36:26;101197.16;;;19.39;59.23
69245;BME280;56357;52.304;4.870;2023-05-10T05:38:53;101203.34;;;19.41;58.41
69245;BME280;56357;52.304;4.870;2023-05-10T05:41:20;101200.81;;;19.35;59.26
69245;BME280;56357;52.304;4.870;2023-05-10T05:43:46;101199.97;;;19.39;59.11
69245;BME280;56357;52.304;4.870;2023-05-10T05:46:13;101196.59;;;19.37;59.42
69245;BME280;56357;52.304;4.870;2023-05-10T05:48:39;101202.50;;;19.46;59.04
69245;BME280;56357;52.304;4.870;2023-05-10T05:51:06;101201.66;;;19.55;60.66
69245;BME280;56357;52.304;4.870;2023-05-10T05:53:32;101198.00;;;19.50;59.72
69245;BME280;56357;52.304;4.870;2023-05-10T05:55:58;101192.66;;;19.48;60.02
69245;BME280;56357;52.304;4.870;2023-05-10T05:58:25;101200.53;;;19.51;60.38
69245;BME280;56357;52.304;4.870;2023-05-10T06:00:51;101205.00;;;19.62;60.10
69245;BME280;56357;52.304;4.870;2023-05-10T06:03:18;101204.47;;;19.55;59.92
69245;BME280;56357;52.304;4.870;2023-05-10T06:05:44;101208.94;;;19.56;60.43
69245;BME280;56357;52.304;4.870;2023-05-10T06:08:11;101210.06;;;19.60;60.42
69245;BME280;56357;52.304;4.870;2023-05-10T06:10:37;101212.03;;;19.60;60.01
69245;BME280;56357;52.304;4.870;2023-05-10T06:13:04;101216.78;;;19.84;61.10
69245;BME280;56357;52.304;4.870;2023-05-10T06:15:30;101216.81;;;19.74;59.85
69245;BME280;56357;52.304;4.870;2023-05-10T06:17:57;101213.44;;;19.67;59.66
69245;BME280;56357;52.304;4.870;2023-05-10T06:20:24;101221.88;;;19.62;59.87
69245;BME280;56357;52.304;4.870;2023-05-10T06:22:51;101224.41;;;19.59;59.96
69245;BME280;56357;52.304;4.870;2023-05-10T06:25:17;101215.97;;;19.54;59.95
69245;BME280;56357;52.304;4.870;2023-05-10T06:27:45;101223.28;;;19.55;60.57
69245;BME280;56357;52.304;4.870;2023-05-10T06:30:12;101231.72;;;19.65;60.48
69245;BME280;56357;52.304;4.870;2023-05-10T06:32:40;101228.06;;;19.64;60.58
69245;BME280;56357;52.304;4.870;2023-05-10T06:35:08;101215.69;;;19.65;60.41
69245;BME280;56357;52.304;4.870;2023-05-10T06:37:35;101231.16;;;19.73;60.95
69245;BME280;56357;52.304;4.870;2023-05-10T06:40:02;101229.19;;;19.68;60.85
69245;BME280;56357;52.304;4.870;2023-05-10T06:42:28;101227.50;;;19.72;61.38
69245;BME280;56357;52.304;4.870;2023-05-10T06:44:55;101230.31;;;19.72;61.29
69245;BME280;56357;52.304;4.870;2023-05-10T06:47:21;101235.66;;;19.69;61.17
69245;BME280;56357;52.304;4.870;2023-05-10T06:49:48;101229.72;;;19.75;61.03
69245;BME280;56357;52.304;4.870;2023-05-10T06:52:14;101237.03;;;19.76;60.80
69245;BME280;56357;52.304;4.870;2023-05-10T06:54:40;101235.63;;;19.74;60.96
69245;BME280;56357;52.304;4.870;2023-05-10T06:57:07;101233.13;;;19.72;61.10
69245;BME280;56357;52.304;4.870;2023-05-10T06:59:33;101239.84;;;19.71;61.06
69245;BME280;56357;52.304;4.870;2023-05-10T07:02:01;101248.28;;;19.76;60.97
69245;BME280;56357;52.304;4.870;2023-05-10T07:04:28;101248.00;;;19.73;61.06
69245;BME280;56357;52.304;4.870;2023-05-10T07:06:54;101255.03;;;19.70;60.94
69245;BME280;56357;52.304;4.870;2023-05-10T07:09:22;101251.66;;;19.73;61.06
69245;BME280;56357;52.304;4.870;2023-05-10T07:11:48;101253.06;;;19.76;60.88
69245;BME280;56357;52.304;4.870;2023-05-10T07:14:15;101249.41;;;19.80;60.96
69245;BME280;56357;52.304;4.870;2023-05-10T07:16:41;101252.22;;;19.75;60.85
69245;BME280;56357;52.304;4.870;2023-05-10T07:19:08;101247.72;;;19.79;61.03
69245;BME280;56357;52.304;4.870;2023-05-10T07:21:34;101253.59;;;19.83;60.98
69245;BME280;56357;52.304;4.870;2023-05-10T07:24:01;101261.75;;;19.79;60.85
69245;BME280;56357;52.304;4.870;2023-05-10T07:26:27;101254.44;;;19.83;60.90
69245;BME280;56357;52.304;4.870;2023-05-10T07:28:54;101265.72;;;19.78;61.16
69245;BME280;56357;52.304;4.870;2023-05-10T07:31:20;101265.69;;;19.83;61.46
69245;BME280;56357;52.304;4.870;2023-05-10T07:33:47;101265.69;;;19.83;61.12
69245;BME280;56357;52.304;4.870;2023-05-10T07:36:13;101263.19;;;19.82;60.86
69245;BME280;56357;52.304;4.870;2023-05-10T07:38:40;101265.41;;;19.85;61.52
69245;BME280;56357;52.304;4.870;2023-05-10T07:41:06;101268.22;;;19.95;60.92
69245;BME280;56357;52.304;4.870;2023-05-10T07:43:33;101260.63;;;19.85;60.78
69245;BME280;56357;52.304;4.870;2023-05-10T07:45:59;101269.63;;;19.92;60.84
69245;BME280;56357;52.304;4.870;2023-05-10T07:48:26;101270.44;;;19.98;60.26
69245;BME280;56357;52.304;4.870;2023-05-10T07:50:52;101271.56;;;20.02;60.42
69245;BME280;56357;52.304;4.870;2023-05-10T07:53:18;101279.19;;;20.01;60.22
69245;BME280;56357;52.304;4.870;2023-05-10T07:55:50;101274.94;;;20.09;60.48
69245;BME280;56357;52.304;4.870;2023-05-10T07:58:17;101281.41;;;20.09;59.99
69245;BME280;56357;52.304;4.870;2023-05-10T08:00:44;101280.56;;;20.09;60.39
69245;BME280;56357;52.304;4.870;2023-05-10T08:03:10;101275.78;;;20.09;59.93
69245;BME280;56357;52.304;4.870;2023-05-10T08:05:37;101271.84;;;20.11;59.80
69245;BME280;56357;52.304;4.870;2023-05-10T08:08:03;101269.56;;;20.18;59.81
69245;BME280;56357;52.304;4.870;2023-05-10T08:10:30;101285.91;;;20.11;59.23
69245;BME280;56357;52.304;4.870;2023-05-10T08:12:56;101278.03;;;20.28;59.67
69245;BME280;56357;52.304;4.870;2023-05-10T08:15:24;101288.41;;;20.17;59.75
69245;BME280;56357;52.304;4.870;2023-05-10T08:17:51;101290.41;;;20.32;59.96
69245;BME280;56357;52.304;4.870;2023-05-10T08:20:18;101281.97;;;20.22;59.05
69245;BME280;56357;52.304;4.870;2023-05-10T08:22:45;101291.00;;;20.19;59.12
69245;BME280;56357;52.304;4.870;2023-05-10T08:25:12;101296.03;;;20.22;58.90
69245;BME280;56357;52.304;4.870;2023-05-10T08:27:38;101301.66;;;20.32;58.82
69245;BME280;56357;52.304;4.870;2023-05-10T08:30:05;101305.56;;;20.36;59.09
69245;BME280;56357;52.304;4.870;2023-05-10T08:32:32;101312.59;;;20.38;58.83
69245;BME280;56357;52.304;4.870;2023-05-10T08:35:00;101302.44;;;20.42;58.82
69245;BME280;56357;52.304;4.870;2023-05-10T08:37:29;101306.97;;;20.33;58.79
69245;BME280;56357;52.304;4.870;2023-05-10T08:39:57;101313.75;;;20.32;58.54
69245;BME280;56357;52.304;4.870;2023-05-10T08:42:25;101315.13;;;20.35;58.47
69245;BME280;56357;52.304;4.870;2023-05-10T08:44:55;101316.81;;;20.41;58.36
69245;BME280;56357;52.304;4.870;2023-05-10T08:47:23;101323.56;;;20.45;58.17
69245;BME280;56357;52.304;4.870;2023-05-10T08:49:51;101310.34;;;20.45;57.91
69245;BME280;56357;52.304;4.870;2023-05-10T08:52:18;101318.22;;;20.43;58.33
69245;BME280;56357;52.304;4.870;2023-05-10T08:54:45;101324.66;;;20.54;58.00
69245;BME280;56357;52.304;4.870;2023-05-10T08:57:12;101328.03;;;20.51;57.99
69245;BME280;56357;52.304;4.870;2023-05-10T08:59:39;101326.66;;;20.43;57.93
69245;BME280;56357;52.304;4.870;2023-05-10T09:02:06;101331.44;;;20.43;57.95
69245;BME280;56357;52.304;4.870;2023-05-10T09:04:33;101338.19;;;20.42;57.99
69245;BME280;56357;52.304;4.870;2023-05-10T09:06:59;101339.88;;;20.43;58.22
69245;BME280;56357;52.304;4.870;2023-05-10T09:09:27;101337.09;;;20.38;57.93
69245;BME280;56357;52.304;4.870;2023-05-10T09:11:54;101342.13;;;20.41;57.98
69245;BME280;56357;52.304;4.870;2023-05-10T09:14:20;101346.34;;;20.38;57.99
69245;BME280;56357;52.304;4.870;2023-05-10T09:16:49;101350.28;;;20.42;57.90
69245;BME280;56357;52.304;4.870;2023-05-10T09:19:16;101353.09;;;20.42;57.85
69245;BME280;56357;52.304;4.870;2023-05-10T09:21:43;101354.22;;;20.46;57.60
69245;BME280;56357;52.304;4.870;2023-05-10T09:24:09;101356.22;;;20.46;57.49
69245;BME280;56357;52.304;4.870;2023-05-10T09:26:45;101355.63;;;20.49;57.46
69245;BME280;56357;52.304;4.870;2023-05-10T09:29:13;101356.75;;;20.48;57.84
69245;BME280;56357;52.304;4.870;2023-05-10T09:31:50;101354.78;;;20.53;57.63
69245;BME280;56357;52.304;4.870;2023-05-10T09:34:28;101362.63;;;20.61;57.47
69245;BME280;56357;52.304;4.870;2023-05-10T09:36:57;101366.25;;;20.72;57.32
69245;BME280;56357;52.304;4.870;2023-05-10T09:39:36;101368.50;;;20.70;56.67
69245;BME280;56357;52.304;4.870;2023-05-10T09:42:08;101364.91;;;20.59;57.28
69245;BME280;56357;52.304;4.870;2023-05-10T09:44:35;101364.56;;;20.76;57.33
69245;BME280;56357;52.304;4.870;2023-05-10T09:47:03;101370.75;;;20.73;57.44
69245;BME280;56357;52.304;4.870;2023-05-10T09:49:30;101368.50;;;20.75;56.15
69245;BME280;56357;52.304;4.870;2023-05-10T09:52:14;101366.47;;;20.90;55.71
69245;BME280;56357;52.304;4.870;2023-05-10T09:54:45;101373.47;;;20.98;55.40
69245;BME280;56357;52.304;4.870;2023-05-10T09:57:22;101366.47;;;20.90;54.57
69245;BME280;56357;52.304;4.870;2023-05-10T09:59:49;101363.41;;;20.82;55.35
69245;BME280;56357;52.304;4.870;2023-05-10T10:02:18;101368.16;;;21.02;55.02
69245;BME280;56357;52.304;4.870;2023-05-10T10:04:49;101371.28;;;20.90;54.78
69245;BME280;56357;52.304;4.870;2023-05-10T10:07:22;101368.50;;;20.80;55.20
69245;BME280;56357;52.304;4.870;2023-05-10T10:09:50;101375.22;;;20.79;55.13
69245;BME280;56357;52.304;4.870;2023-05-10T10:12:16;101371.28;;;20.90;55.07
69245;BME280;56357;52.304;4.870;2023-05-10T10:14:43;101378.09;;;20.69;55.08
69245;BME280;56357;52.304;4.870;2023-05-10T10:17:10;101373.56;;;20.73;54.98
69245;BME280;56357;52.304;4.870;2023-05-10T10:19:36;101381.47;;;20.66;55.29
69245;BME280;56357;52.304;4.870;2023-05-10T10:22:03;101385.13;;;20.61;55.35
69245;BME280;56357;52.304;4.870;2023-05-10T10:24:29;101384.31;;;20.61;55.89
69245;BME280;56357;52.304;4.870;2023-05-10T10:27:02;101392.47;;;20.62;55.67
69245;BME280;56357;52.304;4.870;2023-05-10T10:30:13;101383.72;;;20.69;55.61
69245;BME280;56357;52.304;4.870;2023-05-10T10:32:57;101395.00;;;20.59;55.60
69245;BME280;56357;52.304;4.870;2023-05-10T10:35:28;101393.31;;;20.53;55.86
69245;BME280;56357;52.304;4.870;2023-05-10T10:37:55;101378.97;;;20.59;55.97
69245;BME280;56357;52.304;4.870;2023-05-10T10:40:27;101392.19;;;20.59;55.65
69245;BME280;56357;52.304;4.870;2023-05-10T10:42:54;101389.94;;;20.61;55.59
69245;BME280;56357;52.304;4.870;2023-05-10T10:45:22;101386.84;;;20.52;55.97
69245;BME280;56357;52.304;4.870;2023-05-10T10:47:54;101392.75;;;20.51;56.07
69245;BME280;56357;52.304;4.870;2023-05-10T10:50:46;101396.13;;;20.58;56.61
69245;BME280;56357;52.304;4.870;2023-05-10T10:53:12;101407.09;;;20.54;56.82
69245;BME280;56357;52.304;4.870;2023-05-10T10:55:48;101402.88;;;20.62;56.75
69245;BME280;56357;52.304;4.870;2023-05-10T10:58:30;101398.38;;;20.61;56.83
69245;BME280;56357;52.304;4.870;2023-05-10T11:01:17;101402.88;;;20.62;57.04
69245;BME280;56357;52.304;4.870;2023-05-10T11:06:29;101394.41;;;20.62;56.94
69245;BME280;56357;52.304;4.870;2023-05-10T11:08:57;101402.28;;;20.70;56.78
69245;BME280;56357;52.304;4.870;2023-05-10T11:11:23;101402.28;;;20.70;56.77
69245;BME280;56357;52.304;4.870;2023-05-10T11:13:50;101409.88;;;20.79;57.41
69245;BME280;56357;52.304;4.870;2023-05-10T11:16:18;101402.25;;;20.75;57.78
69245;BME280;56357;52.304;4.870;2023-05-10T11:19:03;101403.94;;;20.81;57.89
69245;BME280;56357;52.304;4.870;2023-05-10T11:21:31;101400.56;;;20.84;57.64
69245;BME280;56357;52.304;4.870;2023-05-10T11:24:01;101405.09;;;20.75;57.83
69245;BME280;56357;52.304;4.870;2023-05-10T11:26:33;101412.38;;;20.81;57.31
69245;BME280;56357;52.304;4.870;2023-05-10T11:29:00;101411.56;;;20.75;57.67
69245;BME280;56357;52.304;4.870;2023-05-10T11:31:28;101412.09;;;20.87;57.53
69245;BME280;56357;52.304;4.870;2023-05-10T11:33:57;101416.03;;;20.86;57.66
69245;BME280;56357;52.304;4.870;2023-05-10T11:36:26;101409.53;;;20.96;57.35
69245;BME280;56357;52.304;4.870;2023-05-10T11:38:54;101418.28;;;21.00;57.52
69245;BME280;56357;52.304;4.870;2023-05-10T11:41:22;101415.16;;;21.06;56.78
69245;BME280;56357;52.304;4.870;2023-05-10T11:43:55;101419.13;;;20.95;56.90
69245;BME280;56357;52.304;4.870;2023-05-10T11:46:24;101416.31;;;20.95;56.92
69245;BME280;56357;52.304;4.870;2023-05-10T11:48:55;101420.25;;;20.89;57.63
69245;BME280;56357;52.304;4.870;2023-05-10T11:51:23;101415.47;;;20.89;57.26
69245;BME280;56357;52.304;4.870;2023-05-10T11:53:52;101415.44;;;21.10;56.57
69245;BME280;56357;52.304;4.870;2023-05-10T11:56:19;101426.44;;;21.11;56.93
69245;BME280;56357;52.304;4.870;2023-05-10T11:58:53;101417.44;;;21.09;57.19
69245;BME280;56357;52.304;4.870;2023-05-10T12:01:21;101426.16;;;21.03;56.58
69245;BME280;56357;52.304;4.870;2023-05-10T12:03:48;101427.00;;;21.08;56.73
69245;BME280;56357;52.304;4.870;2023-05-10T12:06:15;101421.06;;;21.10;56.09
69245;BME280;56357;52.304;4.870;2023-05-10T12:08:46;101439.38;;;20.97;56.61
69245;BME280;56357;52.304;4.870;2023-05-10T12:11:13;101433.75;;;21.02;56.45
69245;BME280;56357;52.304;4.870;2023-05-10T12:13:41;101437.97;;;21.00;56.47
69245;BME280;56357;52.304;4.870;2023-05-10T12:16:21;101439.41;;;21.02;56.61
69245;BME280;56357;52.304;4.870;2023-05-10T12:18:52;101436.28;;;21.04;56.37
69245;BME280;56357;52.304;4.870;2023-05-10T12:21:22;101442.44;;;21.16;56.06
69245;BME280;56357;52.304;4.870;2023-05-10T12:23:51;101448.13;;;21.11;56.16
69245;BME280;56357;52.304;4.870;2023-05-10T12:26:18;101453.72;;;21.16;55.90
69245;BME280;56357;52.304;4.870;2023-05-10T12:28:47;101448.94;;;21.16;55.88
69245;BME280;56357;52.304;4.870;2023-05-10T12:31:13;101446.09;;;21.26;55.75
69245;BME280;56357;52.304;4.870;2023-05-10T12:33:44;101436.97;;;21.44;55.65
69245;BME280;56357;52.304;4.870;2023-05-10T12:36:12;101438.75;;;21.30;55.48
69245;BME280;56357;52.304;4.870;2023-05-10T12:38:42;101447.16;;;21.35;54.71
69245;BME280;56357;52.304;4.870;2023-05-10T12:41:10;101440.38;;;21.36;55.58
69245;BME280;56357;52.304;4.870;2023-05-10T12:43:37;101442.34;;;21.41;54.82
69245;BME280;56357;52.304;4.870;2023-05-10T12:46:12;101440.34;;;21.46;55.03
69245;BME280;56357;52.304;4.870;2023-05-10T12:48:41;101440.00;;;21.58;54.74
69245;BME280;56357;52.304;4.870;2023-05-10T12:51:08;101443.63;;;21.63;54.78
69245;BME280;56357;52.304;4.870;2023-05-10T12:53:37;101442.00;;;21.52;54.20
69245;BME280;56357;52.304;4.870;2023-05-10T12:56:04;101448.72;;;21.66;54.01
69245;BME280;56357;52.304;4.870;2023-05-10T12:58:30;101441.91;;;21.72;54.82
69245;BME280;56357;52.304;4.870;2023-05-10T13:00:58;101440.56;;;21.65;54.94
69245;BME280;56357;52.304;4.870;2023-05-10T13:03:25;101442.72;;;21.73;54.27
69245;BME280;56357;52.304;4.870;2023-05-10T13:05:51;101452.97;;;21.59;54.23
69245;BME280;56357;52.304;4.870;2023-05-10T13:08:18;101459.72;;;21.58;55.22